createdAt,value
2022-10-26T00:01:15.054Z,83.60
2022-10-26T00:03:43.698Z,83.60
2022-10-26T00:06:18.779Z,83.50
2022-10-26T00:08:45.984Z,83.40
2022-10-26T00:11:13.488Z,83.50
2022-10-26T00:13:41.325Z,83.30
2022-10-26T00:16:16.924Z,83.40
2022-10-26T00:18:44.223Z,83.70
2022-10-26T00:21:11.386Z,83.30
2022-10-26T00:23:38.317Z,83.30
2022-10-26T00:26:05.395Z,83.10
2022-10-26T00:28:32.082Z,83.30
2022-10-26T00:31:07.495Z,83.10
2022-10-26T00:33:34.313Z,83.40
2022-10-26T00:36:00.911Z,83.30
2022-10-26T00:38:27.569Z,83.20
2022-10-26T00:40:54.157Z,83.10
2022-10-26T00:43:26.810Z,83.10
2022-10-26T00:45:56.963Z,83.00
2022-10-26T00:48:27.249Z,83.00
2022-10-26T00:50:54.656Z,82.90
2022-10-26T00:53:21.514Z,82.80
2022-10-26T00:55:51.137Z,82.50
2022-10-26T00:58:19.016Z,82.80
2022-10-26T01:00:45.748Z,82.80
2022-10-26T01:03:12.391Z,82.80
2022-10-26T01:05:42.042Z,82.80
2022-10-26T01:08:09.276Z,82.80
2022-10-26T01:10:37.977Z,83.10
2022-10-26T01:13:05.169Z,82.90
2022-10-26T01:15:50.052Z,82.80
2022-10-26T01:18:27.768Z,83.10
2022-10-26T01:21:27.944Z,83.00
2022-10-26T01:24:09.784Z,82.80
2022-10-26T01:26:46.989Z,83.30
2022-10-26T01:29:31.672Z,83.00
2022-10-26T01:32:05.516Z,83.10
2022-10-26T01:34:41.077Z,83.20
2022-10-26T01:37:22.288Z,83.20
2022-10-26T01:39:55.089Z,84.00
2022-10-26T01:42:23.688Z,83.80
2022-10-26T01:44:56.680Z,83.70
2022-10-26T01:47:24.558Z,83.50
2022-10-26T01:49:54.640Z,83.20
2022-10-26T01:52:21.846Z,83.30
2022-10-26T01:54:48.521Z,83.20
2022-10-26T01:57:21.457Z,83.20
2022-10-26T01:59:57.266Z,83.40
2022-10-26T02:02:27.101Z,83.50
2022-10-26T02:05:05.590Z,83.50
2022-10-26T02:07:50.626Z,83.90
2022-10-26T02:10:29.316Z,83.80
2022-10-26T02:13:07.670Z,83.70
2022-10-26T02:15:37.968Z,83.70
2022-10-26T02:18:15.132Z,83.90
2022-10-26T02:20:49.177Z,84.20
2022-10-26T02:23:17.924Z,83.90
2022-10-26T02:25:48.854Z,84.50
2022-10-26T02:28:21.028Z,84.30
2022-10-26T02:30:52.298Z,84.30
2022-10-26T02:33:20.943Z,84.50
2022-10-26T02:35:52.431Z,84.40
2022-10-26T02:38:20.956Z,84.50
2022-10-26T02:40:50.277Z,84.30
2022-10-26T02:43:21.931Z,84.70
2022-10-26T02:45:53.844Z,84.90
2022-10-26T02:48:21.185Z,85.60
2022-10-26T02:51:08.123Z,85.40
2022-10-26T02:53:49.829Z,85.10
2022-10-26T02:56:26.111Z,85.20
2022-10-26T02:58:57.888Z,84.80
2022-10-26T03:01:24.845Z,84.50
2022-10-26T03:03:51.550Z,84.70
2022-10-26T03:06:23.076Z,85.00
2022-10-26T03:08:49.736Z,84.70
2022-10-26T03:11:16.829Z,85.00
2022-10-26T03:13:43.967Z,84.90
2022-10-26T03:16:11.331Z,84.80
2022-10-26T03:18:37.913Z,84.80
2022-10-26T03:21:04.587Z,84.60
2022-10-26T03:23:31.276Z,84.40
2022-10-26T03:25:59.122Z,84.20
2022-10-26T03:28:25.756Z,84.40
2022-10-26T03:30:52.596Z,84.40
2022-10-26T03:33:19.188Z,84.50
2022-10-26T03:35:45.785Z,84.30
2022-10-26T03:38:15.858Z,84.40
2022-10-26T03:40:42.815Z,84.30
2022-10-26T03:43:09.368Z,84.20
2022-10-26T03:45:35.976Z,84.00
2022-10-26T03:48:02.551Z,83.90
2022-10-26T03:50:29.189Z,83.80
2022-10-26T03:52:55.782Z,83.70
2022-10-26T03:55:22.421Z,83.60
2022-10-26T03:57:48.963Z,83.40
2022-10-26T04:00:17.521Z,83.40
2022-10-26T04:02:58.211Z,83.40
2022-10-26T04:05:26.249Z,83.40
2022-10-26T04:07:54.981Z,83.40
2022-10-26T04:10:22.404Z,83.30
2022-10-26T04:12:49.069Z,83.30
2022-10-26T04:15:16.150Z,83.30
2022-10-26T04:17:42.726Z,83.30
2022-10-26T04:20:09.698Z,83.30
2022-10-26T04:22:36.519Z,83.30
2022-10-26T04:25:04.884Z,83.20
2022-10-26T04:27:31.635Z,83.00
2022-10-26T04:29:58.757Z,83.30
2022-10-26T04:32:25.380Z,83.20
2022-10-26T04:34:54.242Z,83.60
2022-10-26T04:37:21.052Z,83.60
2022-10-26T04:39:47.681Z,83.90
2022-10-26T04:42:14.263Z,83.90
2022-10-26T04:44:40.831Z,83.90
2022-10-26T04:47:07.387Z,83.90
2022-10-26T04:49:33.938Z,83.90
2022-10-26T04:52:00.493Z,84.00
2022-10-26T04:54:27.051Z,83.70
2022-10-26T04:56:53.612Z,84.10
2022-10-26T04:59:20.183Z,83.80
2022-10-26T05:01:46.837Z,83.70
2022-10-26T05:04:13.511Z,83.70
2022-10-26T05:06:40.102Z,83.60
2022-10-26T05:09:06.728Z,83.50
2022-10-26T05:11:33.276Z,83.40
2022-10-26T05:13:59.833Z,83.30
2022-10-26T05:16:26.416Z,83.40
2022-10-26T05:18:53.044Z,83.40
2022-10-26T05:21:19.729Z,83.40
2022-10-26T05:23:55.175Z,83.50
2022-10-26T05:26:23.020Z,83.40
2022-10-26T05:28:50.860Z,83.30
2022-10-26T05:31:17.516Z,83.60
2022-10-26T05:33:44.076Z,83.60
2022-10-26T05:36:10.640Z,83.60
2022-10-26T05:38:37.192Z,84.00
2022-10-26T05:41:03.852Z,84.50
2022-10-26T05:43:30.449Z,85.10
2022-10-26T05:45:57.013Z,84.60
2022-10-26T05:48:23.833Z,85.00
2022-10-26T05:50:50.430Z,85.00
2022-10-26T05:53:17.131Z,85.10
2022-10-26T05:55:44.459Z,85.20
2022-10-26T05:58:15.435Z,85.20
2022-10-26T06:00:51.851Z,85.00
2022-10-26T06:03:41.702Z,85.10
2022-10-26T06:06:13.041Z,85.20
2022-10-26T06:08:40.243Z,85.40
2022-10-26T06:11:07.778Z,85.10
2022-10-26T06:13:34.636Z,85.40
2022-10-26T06:16:23.753Z,85.00
2022-10-26T06:18:58.246Z,85.00
2022-10-26T06:22:03.075Z,85.00
2022-10-26T06:25:04.521Z,85.00
2022-10-26T06:27:41.218Z,84.90
2022-10-26T06:30:11.670Z,85.10
2022-10-26T06:32:45.220Z,84.80
2022-10-26T06:35:30.556Z,84.50
2022-10-26T06:38:02.300Z,84.90
2022-10-26T06:40:30.756Z,85.40
2022-10-26T06:42:58.179Z,85.10
2022-10-26T06:45:25.192Z,85.10
2022-10-26T06:47:54.573Z,85.00
2022-10-26T06:50:33.966Z,84.70
2022-10-26T06:53:18.924Z,84.80
2022-10-26T06:55:47.411Z,84.60
2022-10-26T06:58:17.841Z,84.80
2022-10-26T07:00:46.551Z,85.00
2022-10-26T07:03:13.567Z,85.00
2022-10-26T07:05:40.286Z,84.80
2022-10-26T07:08:07.068Z,85.00
2022-10-26T07:10:35.199Z,84.80
2022-10-26T07:13:01.782Z,84.80
2022-10-26T07:15:28.352Z,84.30
2022-10-26T07:17:54.905Z,84.10
2022-10-26T07:20:22.055Z,84.00
2022-10-26T07:22:52.969Z,83.90
2022-10-26T07:25:19.627Z,84.00
2022-10-26T07:27:46.452Z,84.20
2022-10-26T07:30:13.364Z,84.00
2022-10-26T07:32:40.031Z,83.50
2022-10-26T07:35:06.869Z,83.60
2022-10-26T07:37:33.430Z,84.60
2022-10-26T07:40:04.125Z,84.40
2022-10-26T07:42:33.384Z,83.50
2022-10-26T07:44:59.941Z,83.60
2022-10-26T07:47:26.522Z,84.10
2022-10-26T07:49:53.071Z,83.00
2022-10-26T07:52:20.686Z,82.70
2022-10-26T07:54:47.272Z,81.80
2022-10-26T07:57:15.796Z,81.50
2022-10-26T07:59:42.462Z,82.20
2022-10-26T08:02:10.028Z,82.00
2022-10-26T08:04:36.646Z,82.10
2022-10-26T08:07:03.247Z,81.40
2022-10-26T08:09:29.820Z,81.50
2022-10-26T08:11:56.388Z,81.80
2022-10-26T08:14:22.936Z,81.30
2022-10-26T08:16:52.318Z,80.80
2022-10-26T08:19:19.585Z,80.90
2022-10-26T08:21:46.173Z,80.60
2022-10-26T08:24:12.751Z,80.70
2022-10-26T08:26:39.396Z,81.00
2022-10-26T08:29:06.008Z,80.70
2022-10-26T08:31:32.615Z,80.90
2022-10-26T08:33:59.634Z,80.60
2022-10-26T08:36:27.800Z,80.30
2022-10-26T08:38:54.570Z,80.00
2022-10-26T08:41:33.628Z,80.10
2022-10-26T08:44:13.516Z,79.70
2022-10-26T08:46:45.566Z,78.30
2022-10-26T08:49:24.253Z,78.10
2022-10-26T08:51:54.348Z,78.00
2022-10-26T08:54:35.583Z,78.30
2022-10-26T08:57:11.848Z,78.60
2022-10-26T08:59:50.500Z,79.00
2022-10-26T09:02:17.998Z,79.70
2022-10-26T09:04:45.086Z,78.50
2022-10-26T09:07:40.576Z,79.20
2022-10-26T09:10:25.671Z,77.90
2022-10-26T09:13:23.754Z,77.80
2022-10-26T09:16:02.206Z,77.40
2022-10-26T09:18:58.981Z,76.60
2022-10-26T09:21:33.271Z,75.90
2022-10-26T09:24:15.475Z,75.80
2022-10-26T09:27:07.762Z,75.50
2022-10-26T09:29:41.246Z,76.00
2022-10-26T09:32:21.110Z,75.80
2022-10-26T09:34:51.105Z,75.40
2022-10-26T09:37:37.082Z,75.00
2022-10-26T09:40:27.927Z,74.90
2022-10-26T09:43:01.572Z,74.00
2022-10-26T09:45:37.800Z,75.30
2022-10-26T09:48:23.145Z,73.90
2022-10-26T09:50:51.289Z,74.10
2022-10-26T09:53:17.908Z,73.70
2022-10-26T09:55:48.285Z,73.20
2022-10-26T09:58:20.216Z,73.70
2022-10-26T10:00:47.297Z,73.50
2022-10-26T10:03:24.996Z,73.50
2022-10-26T10:05:52.957Z,73.70
2022-10-26T10:08:22.660Z,73.40
2022-10-26T10:11:02.051Z,72.70
2022-10-26T10:13:35.408Z,73.10
2022-10-26T10:16:10.187Z,72.80
2022-10-26T10:18:38.362Z,73.20
2022-10-26T10:21:06.765Z,73.10
2022-10-26T10:23:36.097Z,73.50
2022-10-26T10:26:11.028Z,73.10
2022-10-26T10:28:38.244Z,72.80
2022-10-26T10:31:19.266Z,72.50
2022-10-26T10:33:46.691Z,72.40
2022-10-26T10:36:21.459Z,71.50
2022-10-26T10:38:50.407Z,72.30
2022-10-26T10:41:19.051Z,72.00
2022-10-26T10:43:49.596Z,72.20
2022-10-26T10:46:22.420Z,72.30
2022-10-26T10:48:56.115Z,72.30
2022-10-26T10:51:25.346Z,71.70
2022-10-26T10:53:55.354Z,71.80
2022-10-26T10:56:38.144Z,72.00
2022-10-26T10:59:23.581Z,71.80
2022-10-26T11:02:24.341Z,72.10
2022-10-26T11:05:24.903Z,72.50
2022-10-26T11:08:17.352Z,73.50
2022-10-26T11:10:50.547Z,73.60
2022-10-26T11:13:25.098Z,74.20
2022-10-26T11:15:58.782Z,74.50
2022-10-26T11:18:37.464Z,74.70
2022-10-26T11:21:15.416Z,74.70
2022-10-26T11:23:58.167Z,75.60
2022-10-26T11:26:33.910Z,75.60
2022-10-26T11:29:10.561Z,76.00
2022-10-26T11:31:42.691Z,76.80
2022-10-26T11:34:16.591Z,76.30
2022-10-26T11:36:50.304Z,76.20
2022-10-26T11:39:25.437Z,76.50
2022-10-26T11:42:00.850Z,76.90
2022-10-26T11:44:42.986Z,76.80
2022-10-26T11:47:41.696Z,76.80
2022-10-26T11:50:25.419Z,76.60
2022-10-26T11:52:59.333Z,76.00
2022-10-26T11:55:25.916Z,75.70
2022-10-26T11:57:54.261Z,75.60
2022-10-26T12:00:21.878Z,74.60
2022-10-26T12:02:55.102Z,74.60
2022-10-26T12:05:40.380Z,74.80
2022-10-26T12:08:16.339Z,75.00
2022-10-26T12:10:47.265Z,74.60
2022-10-26T12:13:57.451Z,75.30
2022-10-26T12:17:03.995Z,74.70
2022-10-26T12:20:07.836Z,74.50
2022-10-26T12:22:39.697Z,74.30
2022-10-26T12:25:15.665Z,74.10
2022-10-26T12:27:42.423Z,73.90
2022-10-26T12:30:11.738Z,73.90
2022-10-26T12:32:51.769Z,73.60
2022-10-26T12:35:36.655Z,73.90
2022-10-26T12:38:29.143Z,73.60
2022-10-26T12:41:05.100Z,73.00
2022-10-26T12:43:31.700Z,73.40
2022-10-26T12:46:13.174Z,73.20
2022-10-26T12:48:44.569Z,73.10
2022-10-26T12:51:21.511Z,73.20
2022-10-26T12:54:21.128Z,73.10
2022-10-26T12:56:55.242Z,73.10
2022-10-26T12:59:28.146Z,73.10
2022-10-26T13:02:26.690Z,72.90
2022-10-26T13:05:30.847Z,73.10
2022-10-26T13:08:09.224Z,73.00
2022-10-26T13:10:38.305Z,73.20
2022-10-26T13:13:06.978Z,73.30
2022-10-26T13:15:52.030Z,73.20
2022-10-26T13:18:20.238Z,72.60
2022-10-26T13:21:02.086Z,72.90
2022-10-26T13:23:31.692Z,72.60
2022-10-26T13:26:09.581Z,72.20
2022-10-26T13:28:48.071Z,72.80
2022-10-26T13:31:32.767Z,72.70
2022-10-26T13:34:03.257Z,72.80
2022-10-26T13:36:38.588Z,72.90
2022-10-26T13:39:12.842Z,73.10
2022-10-26T13:41:44.515Z,73.10
2022-10-26T13:44:23.729Z,72.80
2022-10-26T13:46:58.509Z,72.80
2022-10-26T13:49:30.108Z,72.80
2022-10-26T13:52:00.155Z,73.20
2022-10-26T13:54:58.980Z,73.20
2022-10-26T13:57:34.336Z,73.10
2022-10-26T14:00:19.116Z,73.10
2022-10-26T14:02:45.698Z,72.50
2022-10-26T14:05:16.817Z,72.60
2022-10-26T14:07:56.585Z,73.10
2022-10-26T14:10:42.213Z,73.00
2022-10-26T14:13:13.151Z,73.80
2022-10-26T14:15:44.004Z,72.80
2022-10-26T14:18:20.320Z,73.00
2022-10-26T14:21:01.385Z,72.80
2022-10-26T14:23:37.139Z,72.30
2022-10-26T14:26:06.668Z,72.60
2022-10-26T14:28:40.084Z,72.30
2022-10-26T14:31:20.469Z,72.20
2022-10-26T14:33:47.180Z,71.80
2022-10-26T14:36:15.389Z,71.90
2022-10-26T14:38:47.921Z,72.20
2022-10-26T14:41:17.223Z,72.30
2022-10-26T14:43:45.193Z,72.10
2022-10-26T14:46:15.635Z,72.20
2022-10-26T14:48:51.999Z,71.90
2022-10-26T14:51:21.290Z,72.10
2022-10-26T14:53:50.882Z,71.90
2022-10-26T14:56:34.864Z,71.90
2022-10-26T14:59:12.038Z,71.80
2022-10-26T15:02:10.408Z,71.90
2022-10-26T15:04:41.668Z,72.00
2022-10-26T15:07:12.490Z,72.10
2022-10-26T15:09:43.104Z,72.30
2022-10-26T15:12:36.732Z,72.30
2022-10-26T15:15:15.454Z,72.10
2022-10-26T15:17:48.319Z,72.30
2022-10-26T15:20:20.754Z,72.60
2022-10-26T15:22:58.847Z,72.60
2022-10-26T15:25:28.720Z,72.50
2022-10-26T15:28:08.059Z,72.60
2022-10-26T15:30:35.152Z,72.70
2022-10-26T15:33:20.108Z,72.80
2022-10-26T15:35:46.678Z,72.70
2022-10-26T15:38:13.251Z,73.10
2022-10-26T15:40:43.884Z,73.10
2022-10-26T15:43:12.327Z,73.30
2022-10-26T15:45:52.002Z,73.30
2022-10-26T15:48:23.618Z,73.40
2022-10-26T15:50:50.224Z,73.60
2022-10-26T15:53:34.084Z,73.70
2022-10-26T15:56:12.028Z,73.90
2022-10-26T15:58:39.078Z,74.10
2022-10-26T16:01:06.295Z,73.90
2022-10-26T16:03:33.457Z,73.90
2022-10-26T16:06:05.080Z,73.90
2022-10-26T16:08:31.914Z,74.00
2022-10-26T16:10:58.880Z,74.20
2022-10-26T16:13:26.894Z,74.40
2022-10-26T16:15:53.786Z,74.30
2022-10-26T16:18:23.390Z,74.30
2022-10-26T16:20:50.589Z,74.30
2022-10-26T16:23:20.439Z,74.40
2022-10-26T16:25:50.328Z,74.30
2022-10-26T16:28:18.402Z,74.50
2022-10-26T16:30:45.585Z,74.40
2022-10-26T16:33:12.695Z,74.50
2022-10-26T16:35:39.569Z,74.80
2022-10-26T16:38:14.292Z,74.70
2022-10-26T16:40:45.375Z,74.80
2022-10-26T16:43:12.068Z,74.80
2022-10-26T16:45:41.368Z,75.10
2022-10-26T16:48:15.651Z,74.90
2022-10-26T16:50:42.673Z,75.00
2022-10-26T16:53:09.775Z,75.40
2022-10-26T16:55:36.639Z,75.40
2022-10-26T16:58:03.304Z,75.90
2022-10-26T17:00:29.899Z,75.70
2022-10-26T17:02:56.599Z,75.60
2022-10-26T17:05:23.169Z,75.70
2022-10-26T17:07:50.102Z,75.90
2022-10-26T17:10:16.997Z,75.80
2022-10-26T17:12:43.550Z,75.90
2022-10-26T17:15:10.582Z,76.00
2022-10-26T17:17:37.161Z,76.00
2022-10-26T17:20:04.735Z,76.10
2022-10-26T17:22:31.308Z,76.20
2022-10-26T17:24:57.887Z,76.30
2022-10-26T17:27:26.549Z,76.20
2022-10-26T17:29:53.103Z,77.20
2022-10-26T17:32:19.724Z,76.50
2022-10-26T17:34:46.315Z,76.40
2022-10-26T17:37:12.885Z,76.30
2022-10-26T17:39:39.480Z,76.40
2022-10-26T17:42:06.046Z,76.40
2022-10-26T17:44:35.010Z,76.80
2022-10-26T17:47:01.576Z,76.60
2022-10-26T17:49:29.328Z,76.50
2022-10-26T17:51:56.782Z,76.70
2022-10-26T17:54:23.391Z,76.70
2022-10-26T17:56:49.995Z,76.70
2022-10-26T17:59:19.017Z,76.80
2022-10-26T18:01:45.764Z,76.80
2022-10-26T18:04:12.393Z,76.90
2022-10-26T18:06:39.418Z,77.00
2022-10-26T18:09:05.983Z,77.00
2022-10-26T18:11:32.597Z,77.00
2022-10-26T18:13:59.178Z,77.40
2022-10-26T18:16:27.138Z,77.30
2022-10-26T18:19:02.061Z,77.30
2022-10-26T18:21:31.293Z,77.30
2022-10-26T18:23:57.969Z,77.30
2022-10-26T18:26:26.867Z,77.50
2022-10-26T18:28:53.463Z,77.60
2022-10-26T18:31:22.322Z,77.60
2022-10-26T18:33:49.312Z,77.70
2022-10-26T18:36:19.183Z,77.70
2022-10-26T18:38:49.169Z,77.60
2022-10-26T18:41:17.266Z,77.90
2022-10-26T18:43:45.904Z,77.90
2022-10-26T18:46:20.766Z,78.20
2022-10-26T18:48:48.454Z,78.20
2022-10-26T18:51:17.618Z,78.50
2022-10-26T18:53:45.883Z,78.50
2022-10-26T18:56:15.020Z,78.50
2022-10-26T18:58:44.232Z,78.60
2022-10-26T19:01:12.975Z,78.70
2022-10-26T19:03:40.321Z,78.50
2022-10-26T19:06:24.743Z,78.70
2022-10-26T19:08:51.665Z,78.70
2022-10-26T19:11:20.401Z,79.40
2022-10-26T19:13:47.408Z,79.30
2022-10-26T19:16:26.934Z,79.00
2022-10-26T19:19:00.448Z,79.00
2022-10-26T19:21:29.215Z,79.10
2022-10-26T19:23:58.429Z,79.20
2022-10-26T19:26:32.047Z,80.10
2022-10-26T19:29:06.015Z,79.60
2022-10-26T19:31:33.583Z,79.50
2022-10-26T19:34:00.781Z,79.30
2022-10-26T19:36:28.190Z,79.90
2022-10-26T19:38:55.826Z,79.50
2022-10-26T19:41:23.442Z,79.50
2022-10-26T19:43:50.422Z,79.40
2022-10-26T19:46:19.405Z,79.50
2022-10-26T19:48:57.681Z,79.50
2022-10-26T19:51:25.529Z,79.50
2022-10-26T19:53:52.469Z,79.50
2022-10-26T19:56:20.479Z,79.50
2022-10-26T19:58:48.059Z,79.40
2022-10-26T20:01:15.499Z,79.50
2022-10-26T20:03:42.841Z,79.50
2022-10-26T20:06:13.999Z,79.60
2022-10-26T20:08:44.158Z,79.60
2022-10-26T20:11:14.746Z,79.90
2022-10-26T20:13:43.477Z,79.80
2022-10-26T20:16:11.754Z,79.90
2022-10-26T20:18:40.059Z,80.10
2022-10-26T20:21:10.808Z,80.20
2022-10-26T20:23:37.709Z,80.30
2022-10-26T20:26:07.649Z,80.20
2022-10-26T20:28:34.330Z,80.40
2022-10-26T20:31:00.875Z,80.40
2022-10-26T20:33:27.695Z,80.60
2022-10-26T20:36:00.567Z,80.60
2022-10-26T20:38:27.837Z,80.70
2022-10-26T20:40:56.703Z,80.80
2022-10-26T20:43:24.020Z,80.90
2022-10-26T20:45:51.465Z,80.90
2022-10-26T20:48:18.998Z,80.80
2022-10-26T20:51:00.711Z,81.00
2022-10-26T20:53:29.276Z,81.10
2022-10-26T20:55:59.328Z,81.20
2022-10-26T20:58:44.925Z,81.50
2022-10-26T21:01:27.622Z,81.50
2022-10-26T21:03:56.203Z,81.30
2022-10-26T21:06:23.541Z,81.50
2022-10-26T21:08:51.525Z,81.60
2022-10-26T21:11:19.593Z,81.70
2022-10-26T21:13:48.148Z,81.60
2022-10-26T21:16:16.285Z,81.50
2022-10-26T21:18:43.411Z,81.40
2022-10-26T21:21:10.148Z,81.50
2022-10-26T21:23:39.189Z,81.60
2022-10-26T21:26:06.499Z,81.60
2022-10-26T21:28:47.029Z,81.80
2022-10-26T21:31:16.619Z,81.90
2022-10-26T21:33:44.118Z,82.10
2022-10-26T21:36:12.238Z,82.10
2022-10-26T21:38:40.411Z,82.20
2022-10-26T21:41:17.113Z,82.20
2022-10-26T21:43:46.190Z,82.30
2022-10-26T21:46:13.345Z,82.30
2022-10-26T21:48:41.052Z,82.00
2022-10-26T21:51:12.208Z,82.10
2022-10-26T21:53:39.232Z,82.40
2022-10-26T21:56:20.143Z,82.50
2022-10-26T21:58:47.798Z,82.20
2022-10-26T22:01:19.697Z,82.30
2022-10-26T22:03:47.010Z,82.20
2022-10-26T22:06:15.578Z,82.40
2022-10-26T22:08:42.922Z,82.50
2022-10-26T22:11:15.713Z,82.60
2022-10-26T22:13:43.819Z,82.70
2022-10-26T22:16:16.104Z,82.60
2022-10-26T22:18:44.456Z,82.60
2022-10-26T22:21:12.783Z,82.70
2022-10-26T22:23:40.964Z,82.60
2022-10-26T22:26:19.112Z,82.60
2022-10-26T22:28:47.489Z,82.60
2022-10-26T22:31:17.500Z,82.80
2022-10-26T22:33:44.415Z,83.10
2022-10-26T22:36:15.468Z,83.20
2022-10-26T22:38:42.586Z,83.20
2022-10-26T22:41:10.250Z,83.40
2022-10-26T22:43:37.798Z,83.60
2022-10-26T22:46:12.120Z,83.50
2022-10-26T22:48:41.089Z,83.70
2022-10-26T22:51:28.332Z,83.60
2022-10-26T22:53:57.044Z,83.70
2022-10-26T22:58:52.307Z,83.80
2022-10-26T23:01:25.010Z,84.30
2022-10-26T23:03:52.618Z,84.60
2022-10-26T23:06:19.854Z,85.10
2022-10-26T23:08:46.862Z,85.40
2022-10-26T23:11:16.551Z,85.30
2022-10-26T23:13:43.727Z,86.60
2022-10-26T23:16:12.995Z,86.80
2022-10-26T23:18:39.999Z,86.00
2022-10-26T23:21:07.915Z,85.60
2022-10-26T23:23:35.256Z,85.40
2022-10-26T23:26:03.753Z,85.40
2022-10-26T23:28:30.412Z,85.30
2022-10-26T23:30:57.377Z,85.50
2022-10-26T23:33:24.143Z,85.30
2022-10-26T23:35:53.618Z,85.40
2022-10-26T23:38:20.528Z,85.40
2022-10-26T23:40:58.351Z,85.90
2022-10-26T23:43:26.249Z,85.90
2022-10-26T23:45:53.890Z,86.70
2022-10-26T23:48:20.809Z,86.70
2022-10-26T23:50:49.276Z,86.30
2022-10-26T23:53:18.058Z,86.30
2022-10-26T23:55:45.667Z,86.30
2022-10-26T23:58:13.363Z,86.20
